Time;durP1;ratioP1;P1;durP2;ratioP2;P2;SDS_P1;SDS_P2;PMS_P1;PMS_P2;Temp;Humidity;BMP_temperature;BMP_pressure;BME280_temperature;BME280_humidity;BME280_pressure;Samples;Min_cycle;Max_cycle;Signal;HPM_P1;HPM_P2
2021/04/11 00:01:45;;;;;;;53.83;44.15;;;9.30;93.20;;;;;;5000967;28;20065;-59
2021/04/11 00:04:10;;;;;;;59.53;45.80;;;9.30;93.20;;;;;;5013560;28;20042;-56
2021/04/11 00:06:36;;;;;;;54.92;45.60;;;9.30;93.20;;;;;;5032841;28;20037;-58
2021/04/11 00:09:02;;;;;;;72.45;51.83;;;9.30;93.20;;;;;;5021585;28;20045;-61
2021/04/11 00:11:28;;;;;;;58.13;45.75;;;9.30;93.20;;;;;;5013532;28;20057;-55
2021/04/11 00:13:55;;;;;;;52.75;44.22;;;9.30;93.30;;;;;;5032382;28;20061;-53
2021/04/11 00:16:21;;;;;;;47.22;41.03;;;9.40;93.10;;;;;;5032433;28;20037;-54
2021/04/11 00:18:47;;;;;;;51.05;43.83;;;9.40;93.00;;;;;;5012525;28;20505;-57
2021/04/11 00:21:13;;;;;;;53.25;43.30;;;9.40;93.00;;;;;;5016700;28;20117;-56
2021/04/11 00:23:40;;;;;;;54.63;43.20;;;9.40;92.90;;;;;;5012800;28;20090;-54
2021/04/11 00:26:06;;;;;;;52.05;44.65;;;9.40;92.90;;;;;;5009273;28;20474;-55
2021/04/11 00:28:33;;;;;;;50.38;43.85;;;9.40;92.80;;;;;;5022285;28;20033;-58
2021/04/11 00:31:00;;;;;;;50.00;42.42;;;9.40;92.90;;;;;;5030445;28;20029;-58
2021/04/11 00:33:32;;;;;;;47.03;40.25;;;9.40;92.90;;;;;;5011354;28;20052;-57
2021/04/11 00:36:01;;;;;;;51.67;43.65;;;9.30;92.90;;;;;;5012477;28;20037;-55
2021/04/11 00:38:28;;;;;;;50.10;42.95;;;9.40;92.90;;;;;;5030816;28;20089;-55
2021/04/11 00:40:57;;;;;;;48.13;42.17;;;9.30;92.90;;;;;;5021684;28;20041;-56
2021/04/11 00:43:24;;;;;;;48.10;42.22;;;9.40;92.70;;;;;;5012643;28;20087;-57
2021/04/11 00:46:11;;;;;;;47.58;42.05;;;9.30;92.70;;;;;;5019900;28;20033;-57
2021/04/11 00:48:37;;;;;;;51.03;43.28;;;9.30;92.70;;;;;;5030850;28;20493;-57
2021/04/11 00:51:11;;;;;;;50.88;42.83;;;9.30;92.90;;;;;;5010531;28;20046;-57
2021/04/11 00:53:37;;;;;;;55.03;45.47;;;9.30;93.00;;;;;;5019275;28;20030;-56
2021/04/11 00:56:04;;;;;;;54.40;44.65;;;9.20;93.00;;;;;;5030100;28;20595;-57
2021/04/11 00:58:31;;;;;;;51.55;43.47;;;9.20;93.00;;;;;;5011372;28;20109;-53
2021/04/11 01:00:57;;;;;;;50.63;43.22;;;9.20;93.10;;;;;;5012980;28;20128;-57
2021/04/11 01:03:29;;;;;;;54.75;45.00;;;9.20;93.10;;;;;;5012105;28;20077;-56
2021/04/11 01:05:56;;;;;;;53.55;45.53;;;9.20;93.20;;;;;;5023556;28;20033;-56
2021/04/11 01:08:26;;;;;;;53.25;46.40;;;9.10;93.30;;;;;;5034015;28;20026;-57
2021/04/11 01:11:01;;;;;;;53.63;42.67;;;9.10;93.30;;;;;;5025847;28;20485;-56
2021/04/11 01:13:29;;;;;;;64.32;51.28;;;9.10;93.20;;;;;;5016037;28;20030;-56
2021/04/11 01:15:54;;;;;;;53.83;46.65;;;9.10;93.30;;;;;;5025511;28;20481;-56
2021/04/11 01:18:20;;;;;;;52.90;44.80;;;9.10;93.50;;;;;;5035413;28;20040;-56
2021/04/11 01:20:46;;;;;;;55.28;45.38;;;9.10;93.50;;;;;;5027383;28;20033;-58
2021/04/11 01:23:33;;;;;;;53.58;45.25;;;9.10;93.50;;;;;;5015782;28;20497;-53
2021/04/11 01:26:00;;;;;;;53.90;46.55;;;9.00;93.60;;;;;;5017853;28;20053;-54
2021/04/11 01:28:31;;;;;;;55.15;46.92;;;8.90;93.60;;;;;;5015549;28;20029;-57
2021/04/11 01:31:05;;;;;;;53.28;46.47;;;8.90;93.60;;;;;;5033400;28;20455;-52
2021/04/11 01:33:32;;;;;;;53.20;45.40;;;8.90;93.90;;;;;;5035496;28;20026;-56
2021/04/11 01:35:58;;;;;;;53.08;44.58;;;8.90;93.80;;;;;;5017198;28;20283;-54
2021/04/11 01:38:26;;;;;;;51.75;44.58;;;8.90;93.70;;;;;;5022636;28;20108;-55
2021/04/11 01:41:07;;;;;;;53.50;45.85;;;8.80;93.90;;;;;;5035184;28;20028;-57
2021/04/11 01:43:34;;;;;;;52.70;45.50;;;8.70;94.20;;;;;;5035327;28;20358;-57
2021/04/11 01:46:01;;;;;;;52.20;44.05;;;8.70;94.20;;;;;;5033816;28;20426;-59
2021/04/11 01:48:27;;;;;;;46.85;38.17;;;8.80;94.20;;;;;;5027261;28;20062;-60
2021/04/11 01:50:54;;;;;;;41.47;34.80;;;9.10;96.10;;;;;;5015512;28;20077;-60
2021/04/11 01:53:21;;;;;;;44.55;37.63;;;9.60;94.50;;;;;;5020263;28;20489;-61
2021/04/11 01:55:47;;;;;;;41.95;36.45;;;10.00;92.90;;;;;;5035062;28;20029;-59
2021/04/11 01:58:13;;;;;;;40.55;34.95;;;10.20;91.90;;;;;;5030625;28;20470;-57
2021/04/11 02:00:46;;;;;;;40.42;35.97;;;10.20;91.60;;;;;;5015018;28;20030;-60
2021/04/11 02:03:15;;;;;;;40.17;35.33;;;10.10;92.00;;;;;;5002503;28;20045;-59
2021/04/11 02:05:42;;;;;;;42.72;35.92;;;10.30;91.40;;;;;;5001002;28;20027;-60
2021/04/11 02:08:11;;;;;;;40.03;34.63;;;10.10;91.20;;;;;;4998660;28;20105;-58
2021/04/11 02:10:42;;;;;;;41.50;37.03;;;9.90;91.60;;;;;;5034630;28;20040;-58
2021/04/11 02:13:09;;;;;;;41.42;36.88;;;9.70;92.10;;;;;;5031387;28;20042;-57
2021/04/11 02:15:40;;;;;;;41.70;37.03;;;9.50;92.40;;;;;;5014663;28;20085;-59
2021/04/11 02:18:06;;;;;;;46.00;38.17;;;9.50;92.50;;;;;;5013740;28;20022;-57
2021/04/11 02:20:33;;;;;;;46.65;39.65;;;9.50;92.50;;;;;;5034512;28;20504;-57
2021/04/11 02:22:59;;;;;;;47.50;39.45;;;9.50;92.50;;;;;;5015130;28;20041;-58
2021/04/11 02:25:30;;;;;;;49.58;39.58;;;9.50;92.70;;;;;;5022475;28;20046;-58
2021/04/11 02:27:56;;;;;;;48.92;40.67;;;9.50;92.70;;;;;;5014604;28;20104;-60
2021/04/11 02:30:24;;;;;;;45.47;38.60;;;9.50;92.60;;;;;;5031818;28;20497;-60
2021/04/11 02:32:51;;;;;;;46.22;39.65;;;9.40;92.80;;;;;;5033724;28;20036;-60
2021/04/11 02:35:22;;;;;;;46.70;39.78;;;9.40;92.80;;;;;;5017345;28;20126;-59
2021/04/11 02:37:53;;;;;;;44.53;39.03;;;9.40;92.70;;;;;;5012903;28;20033;-59
2021/04/11 02:40:24;;;;;;;45.72;37.38;;;9.40;93.00;;;;;;5029758;28;20049;-57
2021/04/11 02:42:50;;;;;;;47.67;40.70;;;9.40;92.90;;;;;;5034468;28;20544;-58
2021/04/11 02:45:25;;;;;;;43.05;38.25;;;9.40;92.80;;;;;;5018849;28;20042;-60
2021/04/11 02:47:52;;;;;;;43.00;38.25;;;9.50;92.80;;;;;;5014169;28;20040;-58
2021/04/11 02:50:19;;;;;;;44.25;39.33;;;9.50;92.80;;;;;;5013477;28;20450;-59
2021/04/11 02:53:09;;;;;;;45.72;39.70;;;9.50;92.80;;;;;;5013999;28;20030;-60
2021/04/11 02:55:40;;;;;;;42.47;37.60;;;9.60;92.70;;;;;;5030418;28;20037;-59
2021/04/11 02:58:06;;;;;;;40.70;36.30;;;9.50;92.60;;;;;;5033710;28;20083;-59
2021/04/11 03:00:34;;;;;;;41.33;36.58;;;9.50;92.60;;;;;;5018734;28;20034;-59
2021/04/11 03:03:00;;;;;;;44.25;37.65;;;9.60;92.60;;;;;;5013966;28;20128;-59
2021/04/11 03:05:28;;;;;;;43.30;37.95;;;9.60;92.50;;;;;;5010823;28;20129;-59
2021/04/11 03:08:01;;;;;;;43.35;38.70;;;9.50;92.50;;;;;;4993552;28;20053;-60
2021/04/11 03:10:42;;;;;;;42.30;37.83;;;9.60;92.50;;;;;;5020330;28;20405;-59
2021/04/11 03:13:09;;;;;;;45.85;38.58;;;9.60;92.40;;;;;;5033203;28;20033;-60
2021/04/11 03:15:35;;;;;;;42.15;37.10;;;9.60;92.50;;;;;;5020442;28;20080;-58
2021/04/11 03:18:03;;;;;;;48.05;39.63;;;9.60;92.50;;;;;;5012513;28;20653;-58
2021/04/11 03:20:36;;;;;;;41.40;36.83;;;9.60;92.50;;;;;;5025249;28;20057;-59
2021/04/11 03:23:05;;;;;;;45.03;38.53;;;9.60;92.50;;;;;;4994345;28;20030;-56
2021/04/11 03:25:36;;;;;;;46.70;39.80;;;9.50;92.60;;;;;;5016806;28;20040;-58
2021/04/11 03:28:20;;;;;;;46.97;40.50;;;9.50;92.60;;;;;;5032069;28;20376;-60
2021/04/11 03:31:28;;;;;;;42.88;38.00;;;9.50;92.80;;;;;;5032756;28;20049;-59
2021/04/11 03:33:59;;;;;;;45.40;38.55;;;9.50;92.80;;;;;;5024662;28;20030;-59
2021/04/11 03:36:26;;;;;;;42.47;37.03;;;9.60;92.80;;;;;;5012076;28;20030;-60
2021/04/11 03:38:53;;;;;;;40.65;36.35;;;9.60;92.90;;;;;;5020380;28;20506;-58
2021/04/11 03:41:20;;;;;;;40.42;36.03;;;9.60;92.90;;;;;;5033257;28;20029;-60
2021/04/11 03:43:55;;;;;;;43.20;38.40;;;9.60;92.80;;;;;;5027044;28;20029;-60
2021/04/11 03:46:30;;;;;;;;;;;9.60;92.80;;;;;;5013890;28;20026;-60
2021/04/11 03:49:13;;;;;;;40.00;34.80;;;9.60;92.80;;;;;;5030582;28;19913;-60
2021/04/11 03:51:42;;;;;;;40.42;34.80;;;9.60;92.80;;;;;;5032610;28;20040;-61
2021/04/11 03:54:23;;;;;;;43.47;36.58;;;9.60;92.70;;;;;;5014290;28;20022;-60
2021/04/11 03:57:09;;;;;;;38.72;34.47;;;9.70;92.70;;;;;;5008331;28;20030;-60
2021/04/11 03:59:43;;;;;;;37.85;33.88;;;9.70;92.60;;;;;;4993207;28;20034;-59
2021/04/11 04:02:11;;;;;;;40.58;35.88;;;9.70;92.60;;;;;;5005510;28;20073;-58
2021/04/11 04:04:40;;;;;;;41.47;35.28;;;9.60;92.60;;;;;;5012539;28;20057;-59
2021/04/11 04:07:19;;;;;;;38.08;33.92;;;9.70;92.50;;;;;;5012795;28;20428;-59
2021/04/11 04:09:56;;;;;;;40.92;34.90;;;9.70;92.50;;;;;;5032788;28;20030;-59
2021/04/11 04:12:42;;;;;;;40.08;35.58;;;9.70;92.40;;;;;;5029908;28;20496;-58
2021/04/11 04:15:55;;;;;;;41.30;35.00;;;9.70;92.40;;;;;;5012896;28;20033;-58
2021/04/11 04:18:44;;;;;;;38.50;33.33;;;9.70;92.40;;;;;;5016909;28;20054;-60
2021/04/11 04:21:36;;;;;;;40.55;35.70;;;9.70;92.40;;;;;;4997584;28;20120;-59
2021/04/11 04:24:29;;;;;;;40.70;34.08;;;9.70;92.40;;;;;;5012946;28;20137;-58
2021/04/11 04:27:32;;;;;;;36.92;33.10;;;9.70;92.50;;;;;;4992211;28;20389;-58
2021/04/11 04:30:19;;;;;;;38.05;32.45;;;9.60;92.60;;;;;;4992597;28;20122;-59
2021/04/11 04:33:09;;;;;;;35.35;31.33;;;9.70;92.60;;;;;;4997225;28;20124;-58
2021/04/11 04:35:48;;;;;;;33.78;29.98;;;9.70;92.70;;;;;;5032216;28;20483;-59
2021/04/11 04:38:32;;;;;;;39.35;34.13;;;9.70;92.60;;;;;;5026428;28;20022;-58
2021/04/11 04:41:05;;;;;;;45.70;37.47;;;9.60;92.60;;;;;;5011531;28;20617;-58
2021/04/11 04:43:59;;;;;;;41.72;34.15;;;9.70;92.70;;;;;;5025854;28;20037;-59
2021/04/11 04:46:52;;;;;;;33.88;29.40;;;9.70;92.50;;;;;;5031175;28;20033;-59
2021/04/11 04:49:45;;;;;;;40.17;29.38;;;9.80;92.50;;;;;;5012734;28;20096;-56
2021/04/11 04:52:19;;;;;;;34.65;28.92;;;9.80;92.20;;;;;;5011931;28;20385;-56
2021/04/11 04:54:50;;;;;;;32.22;28.40;;;9.90;92.10;;;;;;5033595;28;20029;-58
2021/04/11 04:57:28;;;;;;;31.15;26.65;;;9.90;92.00;;;;;;5032631;28;20061;-59
2021/04/11 05:00:06;;;;;;;30.88;27.05;;;9.90;92.00;;;;;;5013839;28;20026;-59
2021/04/11 05:02:58;;;;;;;30.50;26.08;;;9.90;92.00;;;;;;5015100;28;20157;-57
2021/04/11 05:05:26;;;;;;;34.25;27.00;;;9.90;92.00;;;;;;5032456;28;20051;-57
2021/04/11 05:08:12;;;;;;;28.08;25.00;;;9.90;91.90;;;;;;5026651;28;20069;-59
2021/04/11 05:11:07;;;;;;;29.92;26.30;;;10.10;91.90;;;;;;5012024;28;20069;-58
2021/04/11 05:13:52;;;;;;;28.65;25.63;;;10.10;91.70;;;;;;5021300;28;20088;-60
2021/04/11 05:16:28;;;;;;;27.50;24.35;;;10.10;91.50;;;;;;5031913;28;20412;-58
2021/04/11 05:19:04;;;;;;;29.83;24.77;;;10.20;91.60;;;;;;5019029;28;20060;-59
2021/04/11 05:21:43;;;;;;;27.83;23.70;;;10.30;91.40;;;;;;5012212;28;20022;-60
2021/04/11 05:24:14;;;;;;;25.45;22.75;;;10.30;91.30;;;;;;5012238;28;20034;-59
2021/04/11 05:27:05;;;;;;;29.13;24.40;;;10.40;91.20;;;;;;5012149;28;20124;-58
2021/04/11 05:29:44;;;;;;;29.23;25.15;;;10.40;90.90;;;;;;5024057;28;20041;-59
2021/04/11 05:32:11;;;;;;;27.10;22.77;;;10.60;90.80;;;;;;5031631;28;20452;-56
2021/04/11 05:34:37;;;;;;;23.70;21.30;;;10.60;90.60;;;;;;5023909;28;20033;-59
2021/04/11 05:37:21;;;;;;;23.92;21.33;;;10.70;90.50;;;;;;5031312;28;20506;-59
2021/04/11 05:39:52;;;;;;;24.35;20.58;;;10.80;90.40;;;;;;5015065;28;20029;-60
2021/04/11 05:42:27;;;;;;;25.40;21.45;;;10.80;90.10;;;;;;5011699;28;20389;-58
2021/04/11 05:45:01;;;;;;;24.17;21.67;;;10.90;90.10;;;;;;5028227;28;20607;-58
2021/04/11 05:47:44;;;;;;;24.70;21.95;;;10.90;90.00;;;;;;5031860;28;20045;-61
2021/04/11 05:50:35;;;;;;;29.77;25.42;;;11.00;89.80;;;;;;5013045;28;20037;-59
2021/04/11 05:53:11;;;;;;;28.75;23.35;;;11.00;89.60;;;;;;5025043;28;20083;-61
2021/04/11 05:55:43;;;;;;;26.42;21.42;;;11.00;89.40;;;;;;5035577;28;20088;-58
2021/04/11 05:58:14;;;;;;;22.80;20.50;;;11.10;89.00;;;;;;5033874;28;20434;-60
2021/04/11 06:00:49;;;;;;;23.35;20.75;;;11.10;89.10;;;;;;5034881;28;20033;-59
2021/04/11 06:03:23;;;;;;;25.25;20.35;;;11.10;88.90;;;;;;5019799;28;20034;-61
2021/04/11 06:06:01;;;;;;;21.80;19.02;;;11.10;88.90;;;;;;5035088;28;20029;-62
2021/04/11 06:08:50;;;;;;;22.48;19.58;;;11.20;88.90;;;;;;5020327;28;20100;-59
2021/04/11 06:11:41;;;;;;;22.63;20.15;;;11.20;88.40;;;;;;5014802;28;20040;-60
2021/04/11 06:14:16;;;;;;;23.73;21.05;;;11.20;88.30;;;;;;5032593;28;20021;-59
2021/04/11 06:16:42;;;;;;;23.20;20.80;;;11.30;88.40;;;;;;5034516;28;20485;-59
2021/04/11 06:19:08;;;;;;;28.98;24.92;;;11.40;88.20;;;;;;5016859;28;20044;-57
2021/04/11 06:21:58;;;;;;;25.35;20.98;;;11.40;87.90;;;;;;5013081;28;20079;-59
2021/04/11 06:24:34;;;;;;;23.13;20.63;;;11.40;87.90;;;;;;5014996;28;20072;-60
2021/04/11 06:27:15;;;;;;;23.25;20.10;;;11.40;87.80;;;;;;5015404;28;20034;-56
2021/04/11 06:30:16;;;;;;;21.30;18.77;;;11.50;87.80;;;;;;4994023;28;20137;-59
2021/04/11 06:33:09;;;;;;;23.50;19.42;;;11.50;87.60;;;;;;5034114;28;20536;-57
2021/04/11 06:35:42;;;;;;;22.88;18.30;;;11.70;87.00;;;;;;5029659;28;20036;-60
2021/04/11 06:38:10;;;;;;;23.25;18.73;;;11.80;86.30;;;;;;5014577;28;20022;-57
2021/04/11 06:40:52;;;;;;;27.60;20.33;;;11.80;86.30;;;;;;5029784;28;20025;-60
2021/04/11 06:43:49;;;;;;;22.00;17.67;;;11.90;86.20;;;;;;5026305;28;20579;-59
2021/04/11 06:46:57;;;;;;;19.67;17.55;;;11.90;85.70;;;;;;5015351;28;20037;-60
2021/04/11 06:49:46;;;;;;;19.30;16.52;;;11.90;85.20;;;;;;5033072;28;20086;-59
2021/04/11 06:52:39;;;;;;;19.65;17.55;;;11.90;85.60;;;;;;4994655;28;20496;-59
2021/04/11 06:55:41;;;;;;;19.40;16.13;;;12.00;85.50;;;;;;5022462;28;20454;-60
2021/04/11 06:58:32;;;;;;;19.30;17.23;;;12.00;85.30;;;;;;5006669;28;20030;-60
2021/04/11 07:01:23;;;;;;;21.15;16.02;;;12.20;84.70;;;;;;5014152;28;20486;-58
2021/04/11 07:04:20;;;;;;;47.95;39.67;;;12.30;84.60;;;;;;5011102;28;20030;-59
2021/04/11 07:07:19;;;;;;;20.92;18.00;;;12.30;84.30;;;;;;5011170;28;20034;-59
2021/04/11 07:10:11;;;;;;;18.52;16.55;;;12.30;84.00;;;;;;5013011;28;20095;-60
2021/04/11 07:13:11;;;;;;;19.60;16.13;;;12.20;84.40;;;;;;5027666;28;20105;-60
2021/04/11 07:16:10;;;;;;;18.65;16.63;;;12.20;84.40;;;;;;5013096;28;20405;-60
2021/04/11 07:19:08;;;;;;;17.05;15.32;;;12.30;84.40;;;;;;5012199;28;20550;-60
2021/04/11 07:21:56;;;;;;;18.88;16.90;;;12.20;84.50;;;;;;5010795;28;20083;-61
2021/04/11 07:24:44;;;;;;;19.20;17.30;;;12.40;84.40;;;;;;5011273;28;20034;-58
2021/04/11 07:27:31;;;;;;;20.13;16.70;;;12.50;84.30;;;;;;5022226;28;20580;-60
2021/04/11 07:30:15;;;;;;;20.33;16.48;;;12.50;84.30;;;;;;5029510;28;20080;-61
2021/04/11 07:33:03;;;;;;;19.13;16.88;;;12.70;83.90;;;;;;5013203;28;20389;-59
2021/04/11 07:35:51;;;;;;;18.83;16.73;;;12.80;84.10;;;;;;5014867;28;20030;-59
2021/04/11 07:38:43;;;;;;;17.48;15.77;;;12.90;83.50;;;;;;5012456;28;20444;-56
2021/04/11 07:41:30;;;;;;;17.08;14.18;;;13.00;83.30;;;;;;5012279;28;20447;-61
2021/04/11 07:44:26;;;;;;;18.70;13.40;;;13.10;82.60;;;;;;5012363;28;20531;-59
2021/04/11 07:47:19;;;;;;;16.60;13.35;;;13.10;82.10;;;;;;5011649;28;20033;-59
2021/04/11 07:49:59;;;;;;;18.27;13.20;;;13.20;80.80;;;;;;5014938;28;20109;-61
2021/04/11 07:53:02;;;;;;;14.15;12.25;;;13.30;80.80;;;;;;5019062;28;20493;-60
2021/04/11 07:55:35;;;;;;;19.15;12.65;;;13.50;80.00;;;;;;5032059;28;20346;-58
2021/04/11 07:58:25;;;;;;;14.15;11.52;;;13.60;79.50;;;;;;5026040;28;20036;-59
2021/04/11 08:01:23;;;;;;;14.13;12.30;;;13.80;78.90;;;;;;5018293;28;20116;-60
2021/04/11 08:03:54;;;;;;;15.13;11.07;;;13.90;78.50;;;;;;5021267;28;20481;-59
2021/04/11 08:07:04;;;;;;;13.35;10.43;;;13.90;77.10;;;;;;5032360;28;20060;-57
2021/04/11 08:09:47;;;;;;;12.85;10.65;;;14.10;77.40;;;;;;5018441;28;20034;-58
2021/04/11 08:12:25;;;;;;;12.73;11.02;;;14.10;77.00;;;;;;5016133;28;20032;-60
2021/04/11 08:15:32;;;;;;;17.27;11.70;;;14.20;76.80;;;;;;5013204;28;20037;-60
2021/04/11 08:18:16;;;;;;;12.10;10.90;;;14.20;76.50;;;;;;5012882;28;20041;-59
2021/04/11 08:21:03;;;;;;;14.43;9.82;;;14.20;76.40;;;;;;5010910;28;20033;-59
2021/04/11 08:23:55;;;;;;;13.93;10.15;;;14.50;77.00;;;;;;5019838;28;20037;-59
2021/04/11 08:26:59;;;;;;;13.23;10.60;;;14.50;75.70;;;;;;5011175;28;20127;-61
2021/04/11 08:29:49;;;;;;;13.13;10.90;;;14.50;75.30;;;;;;4981339;28;20038;-60
2021/04/11 08:32:52;;;;;;;14.13;10.40;;;14.60;75.00;;;;;;5002851;28;20609;-63
2021/04/11 08:35:32;;;;;;;12.73;10.18;;;14.70;75.20;;;;;;5012852;28;20044;-61
2021/04/11 08:38:35;;;;;;;14.88;11.15;;;14.80;73.90;;;;;;5014923;28;20038;-61
2021/04/11 08:41:20;;;;;;;13.10;10.32;;;14.80;73.30;;;;;;5011004;28;20034;-59
2021/04/11 08:44:15;;;;;;;12.15;10.45;;;14.90;73.70;;;;;;5011959;28;20025;-62
2021/04/11 08:47:14;;;;;;;12.13;9.45;;;15.00;73.60;;;;;;5011553;28;20026;-63
2021/04/11 08:50:06;;;;;;;10.38;9.25;;;15.00;73.30;;;;;;5011759;28;20041;-61
2021/04/11 08:52:48;;;;;;;10.43;9.32;;;15.00;73.30;;;;;;5014715;28;20136;-59
2021/04/11 08:55:44;;;;;;;10.32;8.65;;;15.00;73.60;;;;;;5026751;28;20621;-60
2021/04/11 08:58:27;;;;;;;13.38;9.82;;;15.10;74.00;;;;;;5012220;28;20071;-59
2021/04/11 09:01:10;;;;;;;11.15;9.23;;;15.30;74.20;;;;;;5010305;28;20453;-60
2021/04/11 09:03:46;;;;;;;13.95;9.30;;;15.40;74.50;;;;;;5011598;28;20022;-61
2021/04/11 09:06:38;;;;;;;11.05;9.68;;;15.50;74.10;;;;;;5010281;28;20397;-62
2021/04/11 09:09:27;;;;;;;13.52;10.18;;;15.60;74.80;;;;;;5011413;28;20084;-65
2021/04/11 09:11:55;;;;;;;12.80;9.20;;;15.70;73.60;;;;;;5011518;28;20042;-63
2021/04/11 09:14:39;;;;;;;11.10;9.02;;;15.70;74.10;;;;;;5024376;28;20030;-64
2021/04/11 09:17:50;;;;;;;12.32;9.40;;;15.80;73.20;;;;;;5013615;28;20026;-61
2021/04/11 09:20:34;;;;;;;11.35;8.43;;;15.70;71.30;;;;;;5012090;28;20026;-61
2021/04/11 09:23:26;;;;;;;9.80;8.35;;;15.60;72.50;;;;;;5017068;28;20061;-63
2021/04/11 09:26:29;;;;;;;10.77;8.95;;;15.70;71.70;;;;;;5025292;28;20507;-58
2021/04/11 09:29:07;;;;;;;10.85;8.90;;;16.00;70.90;;;;;;5015508;28;20034;-57
2021/04/11 09:31:40;;;;;;;11.43;8.23;;;16.10;70.10;;;;;;5032586;28;20037;-61
2021/04/11 09:34:12;;;;;;;11.25;8.48;;;16.30;69.40;;;;;;5015507;28;20473;-64
2021/04/11 09:36:54;;;;;;;11.57;8.43;;;16.30;68.90;;;;;;5016714;28;20030;-57
2021/04/11 09:39:28;;;;;;;11.10;8.52;;;16.40;69.50;;;;;;5021805;28;20613;-54
2021/04/11 09:42:23;;;;;;;9.85;7.63;;;16.60;68.70;;;;;;5017347;28;20116;-58
2021/04/11 09:45:25;;;;;;;11.10;8.73;;;16.60;68.50;;;;;;5032073;28;20038;-55
2021/04/11 09:47:58;;;;;;;10.88;8.25;;;16.60;68.30;;;;;;5015005;28;20434;-59
2021/04/11 09:50:44;;;;;;;8.88;7.70;;;16.50;69.10;;;;;;5022748;28;20061;-60
2021/04/11 09:53:36;;;;;;;9.75;7.68;;;16.70;68.30;;;;;;5035343;28;20493;-56
2021/04/11 09:56:15;;;;;;;8.07;7.28;;;16.90;68.00;;;;;;5022919;28;20034;-60
2021/04/11 09:59:05;;;;;;;9.80;7.10;;;17.00;67.20;;;;;;5015426;28;20096;-56
2021/04/11 10:01:47;;;;;;;16.10;8.18;;;16.90;66.00;;;;;;5024292;28;20338;-56
2021/04/11 10:04:31;;;;;;;9.80;8.20;;;17.00;66.60;;;;;;5015428;28;20398;-58
2021/04/11 10:07:06;;;;;;;9.93;7.57;;;17.00;67.10;;;;;;5033865;28;20033;-58
2021/04/11 10:09:37;;;;;;;10.60;8.35;;;17.10;67.60;;;;;;5034626;28;20029;-57
2021/04/11 10:12:36;;;;;;;7.72;6.93;;;17.20;67.50;;;;;;5016392;28;20513;-55
2021/04/11 10:15:10;;;;;;;8.18;7.10;;;17.20;66.10;;;;;;5016398;28;20484;-56
2021/04/11 10:17:44;;;;;;;8.23;6.70;;;17.40;65.90;;;;;;5034797;28;20457;-55
2021/04/11 10:20:20;;;;;;;10.57;7.18;;;17.50;66.00;;;;;;5033040;28;20061;-55
2021/04/11 10:22:56;;;;;;;9.63;7.50;;;17.50;65.70;;;;;;5015005;28;20044;-60
2021/04/11 10:25:49;;;;;;;7.43;6.60;;;17.40;65.20;;;;;;5016694;28;20437;-58
2021/04/11 10:28:21;;;;;;;9.95;6.32;;;17.60;65.20;;;;;;5033950;28;20029;-59
2021/04/11 10:30:57;;;;;;;9.40;7.05;;;17.70;64.10;;;;;;5028731;28;20088;-59
2021/04/11 10:33:42;;;;;;;8.65;7.32;;;17.60;63.00;;;;;;5014492;28;20030;-56
2021/04/11 10:36:15;;;;;;;8.07;6.03;;;17.60;63.60;;;;;;5021752;28;20134;-60
2021/04/11 10:38:51;;;;;;;8.27;6.40;;;17.70;63.40;;;;;;5033119;28;20036;-60
2021/04/11 10:41:44;;;;;;;7.70;6.40;;;17.70;63.90;;;;;;5026110;28;20121;-61
2021/04/11 10:44:19;;;;;;;7.60;5.78;;;17.90;63.20;;;;;;5014417;28;20033;-56
2021/04/11 10:47:28;;;;;;;6.72;5.50;;;18.00;63.70;;;;;;5024479;28;20033;-57
2021/04/11 10:50:16;;;;;;;8.18;6.20;;;18.10;62.60;;;;;;5033739;28;20029;-62
2021/04/11 10:53:23;;;;;;;7.28;5.57;;;18.00;62.40;;;;;;5015116;28;20034;-60
2021/04/11 10:56:02;;;;;;;7.15;5.15;;;18.00;61.80;;;;;;4965919;28;20057;-62
2021/04/11 10:58:53;;;;;;;8.52;5.38;;;18.00;61.70;;;;;;5010233;28;20064;-58
2021/04/11 11:01:31;;;;;;;6.88;5.72;;;18.20;61.70;;;;;;5018211;28;20036;-60
2021/04/11 11:04:07;;;;;;;7.57;5.32;;;18.20;60.20;;;;;;5034041;28;20033;-54
2021/04/11 11:06:39;;;;;;;6.13;5.05;;;18.20;61.30;;;;;;5028313;28;20030;-62
2021/04/11 11:09:16;;;;;;;11.52;6.18;;;18.20;61.30;;;;;;5012321;28;20036;-59
2021/04/11 11:11:58;;;;;;;7.30;5.85;;;18.40;61.40;;;;;;5019764;28;20025;-58
2021/04/11 11:14:50;;;;;;;9.20;7.97;;;18.40;60.80;;;;;;5033966;28;20037;-57
2021/04/11 11:17:37;;;;;;;8.15;5.82;;;18.40;60.10;;;;;;5023332;28;20026;-57
2021/04/11 11:20:26;;;;;;;9.85;6.18;;;18.40;60.20;;;;;;5014143;28;20045;-58
2021/04/11 11:23:22;;;;;;;8.93;6.25;;;18.40;60.60;;;;;;5013824;28;20087;-60
2021/04/11 11:26:04;;;;;;;7.07;5.72;;;18.30;60.20;;;;;;5007395;28;20477;-61
2021/04/11 11:28:54;;;;;;;6.47;5.18;;;18.20;60.30;;;;;;5031602;28;20151;-62
2021/04/11 11:31:49;;;;;;;7.00;5.20;;;18.30;59.50;;;;;;5023512;28;20076;-60
2021/04/11 11:34:30;;;;;;;6.05;5.43;;;18.50;59.50;;;;;;5015300;28;20540;-59
2021/04/11 11:37:34;;;;;;;9.07;5.18;;;18.60;58.80;;;;;;5030421;28;20041;-61
2021/04/11 11:40:20;;;;;;;5.75;4.63;;;18.70;58.40;;;;;;5020194;28;20091;-60
2021/04/11 11:43:10;;;;;;;6.72;4.47;;;18.70;57.90;;;;;;5033239;28;20128;-58
2021/04/11 11:45:46;;;;;;;6.07;4.80;;;18.80;58.90;;;;;;5021274;28;20121;-61
2021/04/11 11:48:35;;;;;;;6.82;4.53;;;18.70;57.70;;;;;;5013119;28;20564;-59
2021/04/11 11:51:11;;;;;;;6.82;4.80;;;18.70;58.00;;;;;;5027157;28;20105;-57
2021/04/11 11:53:42;;;;;;;6.05;4.60;;;18.90;58.40;;;;;;5032454;28;20055;-58
2021/04/11 11:56:26;;;;;;;6.07;4.53;;;19.00;58.00;;;;;;5017780;28;20041;-58
2021/04/11 11:59:03;;;;;;;4.72;3.90;;;19.10;56.90;;;;;;5012384;28;20382;-58
2021/04/11 12:01:38;;;;;;;7.70;4.40;;;19.10;57.10;;;;;;5023220;28;20437;-58
2021/04/11 12:04:31;;;;;;;5.30;4.55;;;19.20;57.80;;;;;;5012996;28;20037;-57
2021/04/11 12:07:00;;;;;;;5.32;4.70;;;19.20;57.90;;;;;;5032816;28;20061;-60
2021/04/11 12:09:33;;;;;;;6.13;4.50;;;19.20;58.30;;;;;;5031758;28;20037;-59
2021/04/11 12:12:12;;;;;;;5.07;4.57;;;19.20;58.30;;;;;;5032221;28;20037;-58
2021/04/11 12:14:55;;;;;;;7.97;4.70;;;19.40;58.90;;;;;;5032469;28;20477;-59
2021/04/11 12:17:34;;;;;;;6.57;5.00;;;19.60;57.10;;;;;;4993543;28;20092;-58
2021/04/11 12:20:14;;;;;;;8.65;6.53;;;19.80;57.30;;;;;;4997419;28;20113;-56
2021/04/11 12:22:51;;;;;;;8.50;5.38;;;19.80;56.50;;;;;;5015755;28;20073;-58
2021/04/11 12:25:23;;;;;;;7.68;5.22;;;19.80;56.20;;;;;;5013911;28;20037;-59
2021/04/11 12:27:50;;;;;;;7.63;4.70;;;19.70;56.10;;;;;;5014818;28;20041;-60
2021/04/11 12:30:27;;;;;;;6.47;4.70;;;19.90;56.60;;;;;;5015292;28;20030;-59
2021/04/11 12:32:59;;;;;;;5.70;4.68;;;20.00;56.90;;;;;;5018392;28;20065;-58
2021/04/11 12:35:29;;;;;;;7.18;4.80;;;20.10;55.70;;;;;;5012675;28;20553;-56
2021/04/11 12:38:14;;;;;;;6.68;4.50;;;20.10;55.00;;;;;;5011676;28;20116;-59
2021/04/11 12:40:47;;;;;;;6.50;4.50;;;20.20;55.70;;;;;;5032462;28;20465;-58
2021/04/11 12:43:46;;;;;;;7.47;5.17;;;20.40;55.20;;;;;;5031328;28;20136;-59
2021/04/11 12:46:15;;;;;;;5.53;4.53;;;20.40;54.60;;;;;;5017241;28;20352;-58
2021/04/11 12:48:41;;;;;;;6.75;5.13;;;20.40;54.20;;;;;;5014494;28;20030;-58
2021/04/11 12:51:30;;;;;;;8.80;6.15;;;20.40;54.20;;;;;;5011943;28;20152;-61
2021/04/11 12:54:21;;;;;;;6.38;5.53;;;20.70;54.90;;;;;;5021437;28;20046;-59
2021/04/11 12:57:01;;;;;;;6.22;5.03;;;21.10;53.80;;;;;;5013266;28;20482;-57
2021/04/11 12:59:41;;;;;;;7.63;5.68;;;21.00;53.80;;;;;;5030016;28;20041;-59
2021/04/11 13:02:18;;;;;;;7.43;5.10;;;20.90;53.70;;;;;;5017196;28;20033;-60
2021/04/11 13:04:51;;;;;;;8.95;4.80;;;20.80;54.30;;;;;;5036357;28;20047;-60
2021/04/11 13:07:39;;;;;;;6.68;4.95;;;20.50;54.20;;;;;;5036688;28;20343;-58
2021/04/11 13:10:34;;;;;;;6.32;4.68;;;20.10;54.20;;;;;;4996587;28;20038;-59
2021/04/11 13:13:03;;;;;;;;;;;20.20;54.60;;;;;;5004347;28;20556;-60
2021/04/11 13:15:31;;;;;;;7.53;4.85;;;20.40;54.00;;;;;;5035635;28;20331;-58
2021/04/11 13:18:04;;;;;;;5.85;4.40;;;20.60;52.90;;;;;;5033403;28;20554;-58
2021/04/11 13:20:52;;;;;;;5.07;4.40;;;20.60;53.00;;;;;;5035355;28;20041;-59
2021/04/11 13:23:29;;;;;;;6.22;4.60;;;20.60;53.50;;;;;;5007186;28;20109;-59
2021/04/11 13:26:20;;;;;;;6.03;4.50;;;20.60;53.20;;;;;;5035385;28;20041;-58
2021/04/11 13:28:58;;;;;;;5.50;4.60;;;20.70;52.90;;;;;;5026775;28;20034;-55
2021/04/11 13:31:50;;;;;;;5.88;4.00;;;20.50;53.20;;;;;;5015836;28;20024;-59
2021/04/11 13:34:25;;;;;;;6.10;4.63;;;20.40;53.60;;;;;;5027511;28;20076;-61
2021/04/11 13:36:51;;;;;;;;;;;20.50;53.90;;;;;;5035698;28;20585;-56
2021/04/11 13:39:27;;;;;;;6.95;4.10;;;20.60;54.00;;;;;;5024298;28;19910;-59
2021/04/11 13:42:19;;;;;;;5.32;3.80;;;20.60;53.70;;;;;;5015638;28;20402;-59